sensor_id;sensor_type;location;lat;lon;timestamp;temperature;humidity
52656;SHT85;35474;51.032;6.998;2023-10-09T00:00:48;14.73;93.04
52656;SHT85;35474;51.032;6.998;2023-10-09T00:03:18;14.70;92.98
52656;SHT85;35474;51.032;6.998;2023-10-09T00:05:45;14.70;92.77
52656;SHT85;35474;51.032;6.998;2023-10-09T00:08:11;14.67;92.81
52656;SHT85;35474;51.032;6.998;2023-10-09T00:10:44;14.80;92.68
52656;SHT85;35474;51.032;6.998;2023-10-09T00:13:24;14.70;92.45
52656;SHT85;35474;51.032;6.998;2023-10-09T00:16:06;14.74;92.41
52656;SHT85;35474;51.032;6.998;2023-10-09T00:18:40;14.70;92.32
52656;SHT85;35474;51.032;6.998;2023-10-09T00:21:14;14.73;92.10
52656;SHT85;35474;51.032;6.998;2023-10-09T00:23:46;14.66;92.18
52656;SHT85;35474;51.032;6.998;2023-10-09T00:26:19;14.57;92.09
52656;SHT85;35474;51.032;6.998;2023-10-09T00:28:46;14.51;92.12
52656;SHT85;35474;51.032;6.998;2023-10-09T00:31:18;14.52;91.91
52656;SHT85;35474;51.032;6.998;2023-10-09T00:34:00;14.43;91.91
52656;SHT85;35474;51.032;6.998;2023-10-09T00:36:33;14.42;91.92
52656;SHT85;35474;51.032;6.998;2023-10-09T00:39:09;14.36;91.85
52656;SHT85;35474;51.032;6.998;2023-10-09T00:41:44;14.49;92.03
52656;SHT85;35474;51.032;6.998;2023-10-09T00:44:11;14.36;92.22
52656;SHT85;35474;51.032;6.998;2023-10-09T00:46:38;14.29;92.18
52656;SHT85;35474;51.032;6.998;2023-10-09T00:49:09;14.25;92.11
52656;SHT85;35474;51.032;6.998;2023-10-09T00:51:38;14.19;92.21
52656;SHT85;35474;51.032;6.998;2023-10-09T00:54:22;14.29;91.97
52656;SHT85;35474;51.032;6.998;2023-10-09T00:56:53;14.15;92.19
52656;SHT85;35474;51.032;6.998;2023-10-09T00:59:25;14.06;92.51
52656;SHT85;35474;51.032;6.998;2023-10-09T01:01:51;14.15;92.39
52656;SHT85;35474;51.032;6.998;2023-10-09T01:04:25;14.33;92.44
52656;SHT85;35474;51.032;6.998;2023-10-09T01:06:56;14.12;92.26
52656;SHT85;35474;51.032;6.998;2023-10-09T01:09:37;14.36;92.71
52656;SHT85;35474;51.032;6.998;2023-10-09T01:12:04;14.35;92.50
52656;SHT85;35474;51.032;6.998;2023-10-09T01:14:32;14.15;92.45
52656;SHT85;35474;51.032;6.998;2023-10-09T01:17:07;14.18;92.61
52656;SHT85;35474;51.032;6.998;2023-10-09T01:19:35;14.25;92.74
52656;SHT85;35474;51.032;6.998;2023-10-09T01:22:03;14.30;92.52
52656;SHT85;35474;51.032;6.998;2023-10-09T01:24:39;14.19;92.56
52656;SHT85;35474;51.032;6.998;2023-10-09T01:27:06;14.21;92.55
52656;SHT85;35474;51.032;6.998;2023-10-09T01:29:43;14.26;92.40
52656;SHT85;35474;51.032;6.998;2023-10-09T01:32:12;14.19;92.31
52656;SHT85;35474;51.032;6.998;2023-10-09T01:34:50;14.22;92.17
52656;SHT85;35474;51.032;6.998;2023-10-09T01:37:18;14.28;92.23
52656;SHT85;35474;51.032;6.998;2023-10-09T01:39:49;14.33;92.11
52656;SHT85;35474;51.032;6.998;2023-10-09T01:42:17;14.35;92.11
52656;SHT85;35474;51.032;6.998;2023-10-09T01:44:57;14.39;91.83
52656;SHT85;35474;51.032;6.998;2023-10-09T01:47:38;14.44;91.76
52656;SHT85;35474;51.032;6.998;2023-10-09T01:50:06;14.40;91.72
52656;SHT85;35474;51.032;6.998;2023-10-09T01:52:46;14.42;91.64
52656;SHT85;35474;51.032;6.998;2023-10-09T01:55:15;14.48;91.52
52656;SHT85;35474;51.032;6.998;2023-10-09T01:57:55;14.56;91.09
52656;SHT85;35474;51.032;6.998;2023-10-09T02:00:25;14.59;91.10
52656;SHT85;35474;51.032;6.998;2023-10-09T02:02:55;14.69;90.76
52656;SHT85;35474;51.032;6.998;2023-10-09T02:05:22;14.64;90.64
52656;SHT85;35474;51.032;6.998;2023-10-09T02:07:51;14.81;90.32
52656;SHT85;35474;51.032;6.998;2023-10-09T02:10:23;14.73;90.35
52656;SHT85;35474;51.032;6.998;2023-10-09T02:12:56;14.80;90.00
52656;SHT85;35474;51.032;6.998;2023-10-09T02:15:28;14.79;89.86
52656;SHT85;35474;51.032;6.998;2023-10-09T02:18:16;14.72;90.16
52656;SHT85;35474;51.032;6.998;2023-10-09T02:20:51;14.69;90.13
52656;SHT85;35474;51.032;6.998;2023-10-09T02:23:32;14.67;90.18
52656;SHT85;35474;51.032;6.998;2023-10-09T02:26:07;14.70;90.17
52656;SHT85;35474;51.032;6.998;2023-10-09T02:28:35;14.80;89.96
52656;SHT85;35474;51.032;6.998;2023-10-09T02:31:11;14.81;89.71
52656;SHT85;35474;51.032;6.998;2023-10-09T02:33:40;14.77;89.88
52656;SHT85;35474;51.032;6.998;2023-10-09T02:36:06;14.87;89.65
52656;SHT85;35474;51.032;6.998;2023-10-09T02:38:33;14.84;89.68
52656;SHT85;35474;51.032;6.998;2023-10-09T02:41:03;15.00;89.37
52656;SHT85;35474;51.032;6.998;2023-10-09T02:43:31;14.87;89.30
52656;SHT85;35474;51.032;6.998;2023-10-09T02:46:11;14.90;89.23
52656;SHT85;35474;51.032;6.998;2023-10-09T02:48:47;14.97;89.00
52656;SHT85;35474;51.032;6.998;2023-10-09T02:51:19;14.90;89.06
52656;SHT85;35474;51.032;6.998;2023-10-09T02:53:56;14.81;89.28
52656;SHT85;35474;51.032;6.998;2023-10-09T02:56:26;14.88;89.06
52656;SHT85;35474;51.032;6.998;2023-10-09T02:59:14;14.87;88.80
52656;SHT85;35474;51.032;6.998;2023-10-09T03:01:41;14.70;89.32
52656;SHT85;35474;51.032;6.998;2023-10-09T03:04:07;14.85;88.95
52656;SHT85;35474;51.032;6.998;2023-10-09T03:06:37;14.77;89.17
52656;SHT85;35474;51.032;6.998;2023-10-09T03:09:19;14.80;89.39
52656;SHT85;35474;51.032;6.998;2023-10-09T03:11:57;14.94;89.06
52656;SHT85;35474;51.032;6.998;2023-10-09T03:14:32;14.77;89.20
52656;SHT85;35474;51.032;6.998;2023-10-09T03:17:02;14.84;89.10
52656;SHT85;35474;51.032;6.998;2023-10-09T03:19:29;14.81;89.07
52656;SHT85;35474;51.032;6.998;2023-10-09T03:22:04;14.83;89.17
52656;SHT85;35474;51.032;6.998;2023-10-09T03:24:36;14.83;89.06
52656;SHT85;35474;51.032;6.998;2023-10-09T03:27:03;14.79;89.17
52656;SHT85;35474;51.032;6.998;2023-10-09T03:29:30;14.97;88.60
52656;SHT85;35474;51.032;6.998;2023-10-09T03:31:57;14.87;88.71
52656;SHT85;35474;51.032;6.998;2023-10-09T03:34:24;14.87;88.88
52656;SHT85;35474;51.032;6.998;2023-10-09T03:36:50;15.10;88.20
52656;SHT85;35474;51.032;6.998;2023-10-09T03:39:40;14.94;88.43
52656;SHT85;35474;51.032;6.998;2023-10-09T03:42:13;14.87;88.40
52656;SHT85;35474;51.032;6.998;2023-10-09T03:44:46;14.70;89.07
52656;SHT85;35474;51.032;6.998;2023-10-09T03:47:20;14.67;89.09
52656;SHT85;35474;51.032;6.998;2023-10-09T03:49:51;14.76;89.37
52656;SHT85;35474;51.032;6.998;2023-10-09T03:52:19;14.87;88.77
52656;SHT85;35474;51.032;6.998;2023-10-09T03:54:46;14.74;89.16
52656;SHT85;35474;51.032;6.998;2023-10-09T03:57:13;14.76;89.13
52656;SHT85;35474;51.032;6.998;2023-10-09T03:59:45;14.79;89.31
52656;SHT85;35474;51.032;6.998;2023-10-09T04:02:17;14.79;89.31
52656;SHT85;35474;51.032;6.998;2023-10-09T04:04:44;14.74;89.20
52656;SHT85;35474;51.032;6.998;2023-10-09T04:07:14;14.80;89.00
52656;SHT85;35474;51.032;6.998;2023-10-09T04:09:44;14.74;89.33
52656;SHT85;35474;51.032;6.998;2023-10-09T04:12:36;14.79;89.30
52656;SHT85;35474;51.032;6.998;2023-10-09T04:15:06;14.79;89.14
52656;SHT85;35474;51.032;6.998;2023-10-09T04:17:41;14.84;89.16
52656;SHT85;35474;51.032;6.998;2023-10-09T04:20:09;14.81;89.17
52656;SHT85;35474;51.032;6.998;2023-10-09T04:22:45;14.83;88.92
52656;SHT85;35474;51.032;6.998;2023-10-09T04:25:26;14.70;89.71
52656;SHT85;35474;51.032;6.998;2023-10-09T04:27:55;14.79;89.38
52656;SHT85;35474;51.032;6.998;2023-10-09T04:30:41;14.74;89.55
52656;SHT85;35474;51.032;6.998;2023-10-09T04:33:13;14.88;89.36
52656;SHT85;35474;51.032;6.998;2023-10-09T04:36:00;14.85;89.20
52656;SHT85;35474;51.032;6.998;2023-10-09T04:39:03;14.67;89.70
52656;SHT85;35474;51.032;6.998;2023-10-09T04:41:31;14.69;89.63
52656;SHT85;35474;51.032;6.998;2023-10-09T04:44:09;14.74;89.27
52656;SHT85;35474;51.032;6.998;2023-10-09T04:46:42;14.73;89.58
52656;SHT85;35474;51.032;6.998;2023-10-09T04:49:32;14.85;89.52
52656;SHT85;35474;51.032;6.998;2023-10-09T04:52:15;14.85;89.06
52656;SHT85;35474;51.032;6.998;2023-10-09T04:54:52;14.87;89.14
52656;SHT85;35474;51.032;6.998;2023-10-09T04:57:34;14.95;89.22
52656;SHT85;35474;51.032;6.998;2023-10-09T05:00:08;14.94;89.25
52656;SHT85;35474;51.032;6.998;2023-10-09T05:02:55;15.00;88.65
52656;SHT85;35474;51.032;6.998;2023-10-09T05:05:33;14.95;89.23
52656;SHT85;35474;51.032;6.998;2023-10-09T05:08:10;15.04;88.61
52656;SHT85;35474;51.032;6.998;2023-10-09T05:10:48;14.95;88.76
52656;SHT85;35474;51.032;6.998;2023-10-09T05:13:44;14.95;88.80
52656;SHT85;35474;51.032;6.998;2023-10-09T05:16:24;14.97;88.70
52656;SHT85;35474;51.032;6.998;2023-10-09T05:18:59;14.88;88.98
52656;SHT85;35474;51.032;6.998;2023-10-09T05:21:30;14.81;89.24
52656;SHT85;35474;51.032;6.998;2023-10-09T05:23:59;14.80;89.22
52656;SHT85;35474;51.032;6.998;2023-10-09T05:26:49;14.84;89.24
52656;SHT85;35474;51.032;6.998;2023-10-09T05:31:59;14.94;88.90
52656;SHT85;35474;51.032;6.998;2023-10-09T05:34:39;14.88;88.71
52656;SHT85;35474;51.032;6.998;2023-10-09T05:37:32;14.93;88.95
52656;SHT85;35474;51.032;6.998;2023-10-09T05:40:04;14.88;88.87
52656;SHT85;35474;51.032;6.998;2023-10-09T05:42:45;14.69;89.43
52656;SHT85;35474;51.032;6.998;2023-10-09T05:45:23;14.70;89.71
52656;SHT85;35474;51.032;6.998;2023-10-09T05:48:16;14.66;89.79
52656;SHT85;35474;51.032;6.998;2023-10-09T05:50:43;14.67;89.79
52656;SHT85;35474;51.032;6.998;2023-10-09T05:53:28;14.80;89.52
52656;SHT85;35474;51.032;6.998;2023-10-09T05:56:10;14.79;89.63
52656;SHT85;35474;51.032;6.998;2023-10-09T05:58:56;14.69;89.66
52656;SHT85;35474;51.032;6.998;2023-10-09T06:01:41;14.74;89.88
52656;SHT85;35474;51.032;6.998;2023-10-09T06:04:20;14.81;89.63
52656;SHT85;35474;51.032;6.998;2023-10-09T06:06:47;14.91;89.28
52656;SHT85;35474;51.032;6.998;2023-10-09T06:09:23;14.87;89.44
52656;SHT85;35474;51.032;6.998;2023-10-09T06:12:10;15.07;89.06
52656;SHT85;35474;51.032;6.998;2023-10-09T06:14:55;15.05;88.80
52656;SHT85;35474;51.032;6.998;2023-10-09T06:17:30;15.18;88.35
52656;SHT85;35474;51.032;6.998;2023-10-09T06:20:10;15.21;88.42
52656;SHT85;35474;51.032;6.998;2023-10-09T06:22:57;15.25;88.30
52656;SHT85;35474;51.032;6.998;2023-10-09T06:25:24;15.30;88.17
52656;SHT85;35474;51.032;6.998;2023-10-09T06:27:59;15.28;88.04
52656;SHT85;35474;51.032;6.998;2023-10-09T06:32:34;15.36;87.98
52656;SHT85;35474;51.032;6.998;2023-10-09T06:35:01;15.35;87.93
52656;SHT85;35474;51.032;6.998;2023-10-09T06:37:47;15.43;87.89
52656;SHT85;35474;51.032;6.998;2023-10-09T06:40:33;15.52;87.60
52656;SHT85;35474;51.032;6.998;2023-10-09T06:43:20;15.53;87.51
52656;SHT85;35474;51.032;6.998;2023-10-09T06:45:48;15.80;86.87
52656;SHT85;35474;51.032;6.998;2023-10-09T06:48:21;15.74;86.88
52656;SHT85;35474;51.032;6.998;2023-10-09T06:53:35;16.22;85.79
52656;SHT85;35474;51.032;6.998;2023-10-09T06:59:10;16.27;85.21
52656;SHT85;35474;51.032;6.998;2023-10-09T07:01:51;16.31;85.31
52656;SHT85;35474;51.032;6.998;2023-10-09T07:04:36;16.44;85.26
52656;SHT85;35474;51.032;6.998;2023-10-09T07:07:04;16.37;85.27
52656;SHT85;35474;51.032;6.998;2023-10-09T07:09:39;16.42;85.10
52656;SHT85;35474;51.032;6.998;2023-10-09T07:12:09;16.35;85.00
52656;SHT85;35474;51.032;6.998;2023-10-09T07:14:41;16.20;85.20
52656;SHT85;35474;51.032;6.998;2023-10-09T07:17:08;16.30;85.25
52656;SHT85;35474;51.032;6.998;2023-10-09T07:20:11;16.55;84.63
52656;SHT85;35474;51.032;6.998;2023-10-09T07:22:56;16.40;84.65
52656;SHT85;35474;51.032;6.998;2023-10-09T07:25:40;16.51;84.61
52656;SHT85;35474;51.032;6.998;2023-10-09T07:28:09;16.58;84.51
52656;SHT85;35474;51.032;6.998;2023-10-09T07:30:45;16.48;84.89
52656;SHT85;35474;51.032;6.998;2023-10-09T07:33:12;16.59;85.08
52656;SHT85;35474;51.032;6.998;2023-10-09T07:35:49;16.73;84.01
52656;SHT85;35474;51.032;6.998;2023-10-09T07:38:24;16.88;83.88
52656;SHT85;35474;51.032;6.998;2023-10-09T07:41:02;17.30;83.30
52656;SHT85;35474;51.032;6.998;2023-10-09T07:43:38;17.17;81.82
52656;SHT85;35474;51.032;6.998;2023-10-09T07:46:06;17.29;82.36
52656;SHT85;35474;51.032;6.998;2023-10-09T07:48:53;17.33;81.78
52656;SHT85;35474;51.032;6.998;2023-10-09T07:51:20;17.33;81.75
52656;SHT85;35474;51.032;6.998;2023-10-09T07:53:57;17.34;81.43
52656;SHT85;35474;51.032;6.998;2023-10-09T07:56:37;17.33;81.73
52656;SHT85;35474;51.032;6.998;2023-10-09T07:59:08;17.43;81.33
52656;SHT85;35474;51.032;6.998;2023-10-09T08:04:29;17.48;81.05
52656;SHT85;35474;51.032;6.998;2023-10-09T08:07:15;17.50;80.89
52656;SHT85;35474;51.032;6.998;2023-10-09T08:10:20;17.54;80.59
52656;SHT85;35474;51.032;6.998;2023-10-09T08:12:47;17.53;80.36
52656;SHT85;35474;51.032;6.998;2023-10-09T08:15:17;17.53;80.64
52656;SHT85;35474;51.032;6.998;2023-10-09T08:17:51;17.59;80.31
52656;SHT85;35474;51.032;6.998;2023-10-09T08:20:40;17.61;79.90
52656;SHT85;35474;51.032;6.998;2023-10-09T08:23:25;17.72;79.17
52656;SHT85;35474;51.032;6.998;2023-10-09T08:26:21;17.85;78.72
52656;SHT85;35474;51.032;6.998;2023-10-09T08:28:58;17.81;78.45
52656;SHT85;35474;51.032;6.998;2023-10-09T08:31:44;17.85;78.51
52656;SHT85;35474;51.032;6.998;2023-10-09T08:34:23;17.92;78.15
52656;SHT85;35474;51.032;6.998;2023-10-09T08:36:55;17.98;78.13
52656;SHT85;35474;51.032;6.998;2023-10-09T08:39:22;17.99;78.43
52656;SHT85;35474;51.032;6.998;2023-10-09T08:41:53;17.92;79.29
52656;SHT85;35474;51.032;6.998;2023-10-09T08:44:24;17.99;79.27
52656;SHT85;35474;51.032;6.998;2023-10-09T08:46:56;18.17;78.17
52656;SHT85;35474;51.032;6.998;2023-10-09T08:49:24;18.34;77.36
52656;SHT85;35474;51.032;6.998;2023-10-09T08:51:52;18.39;77.00
52656;SHT85;35474;51.032;6.998;2023-10-09T08:54:19;18.73;76.80
52656;SHT85;35474;51.032;6.998;2023-10-09T08:56:46;18.99;75.80
52656;SHT85;35474;51.032;6.998;2023-10-09T08:59:17;19.56;74.55
52656;SHT85;35474;51.032;6.998;2023-10-09T09:01:50;19.42;74.10
52656;SHT85;35474;51.032;6.998;2023-10-09T09:07:05;18.77;75.60
52656;SHT85;35474;51.032;6.998;2023-10-09T09:09:33;18.85;75.32
52656;SHT85;35474;51.032;6.998;2023-10-09T09:12:00;18.77;75.74
52656;SHT85;35474;51.032;6.998;2023-10-09T09:14:36;18.70;75.75
52656;SHT85;35474;51.032;6.998;2023-10-09T09:17:05;18.58;75.62
52656;SHT85;35474;51.032;6.998;2023-10-09T09:19:38;18.75;76.02
52656;SHT85;35474;51.032;6.998;2023-10-09T09:22:04;18.92;75.72
52656;SHT85;35474;51.032;6.998;2023-10-09T09:24:39;19.14;75.01
52656;SHT85;35474;51.032;6.998;2023-10-09T09:27:14;19.14;74.69
52656;SHT85;35474;51.032;6.998;2023-10-09T09:29:58;18.89;74.92
52656;SHT85;35474;51.032;6.998;2023-10-09T09:32:33;19.05;74.79
52656;SHT85;35474;51.032;6.998;2023-10-09T09:35:04;19.12;75.00
52656;SHT85;35474;51.032;6.998;2023-10-09T09:37:51;19.19;74.74
52656;SHT85;35474;51.032;6.998;2023-10-09T09:40:20;19.14;75.45
52656;SHT85;35474;51.032;6.998;2023-10-09T09:43:01;19.28;75.05
52656;SHT85;35474;51.032;6.998;2023-10-09T09:45:35;19.47;74.53
52656;SHT85;35474;51.032;6.998;2023-10-09T09:48:03;20.00;73.44
52656;SHT85;35474;51.032;6.998;2023-10-09T09:50:33;20.49;70.84
52656;SHT85;35474;51.032;6.998;2023-10-09T09:53:03;21.41;68.37
52656;SHT85;35474;51.032;6.998;2023-10-09T09:55:33;21.11;68.06
52656;SHT85;35474;51.032;6.998;2023-10-09T09:58:01;20.94;68.24
52656;SHT85;35474;51.032;6.998;2023-10-09T10:00:33;20.99;67.55
52656;SHT85;35474;51.032;6.998;2023-10-09T10:03:14;21.07;66.91
52656;SHT85;35474;51.032;6.998;2023-10-09T10:05:46;20.62;67.69
52656;SHT85;35474;51.032;6.998;2023-10-09T10:08:21;21.07;67.17
52656;SHT85;35474;51.032;6.998;2023-10-09T10:10:57;20.99;66.96
52656;SHT85;35474;51.032;6.998;2023-10-09T10:16:07;20.63;68.03
52656;SHT85;35474;51.032;6.998;2023-10-09T10:21:27;20.68;67.93
52656;SHT85;35474;51.032;6.998;2023-10-09T10:24:00;20.76;66.92
52656;SHT85;35474;51.032;6.998;2023-10-09T10:26:36;21.21;65.70
52656;SHT85;35474;51.032;6.998;2023-10-09T10:29:16;21.41;65.14
52656;SHT85;35474;51.032;6.998;2023-10-09T10:34:21;22.10;63.41
52656;SHT85;35474;51.032;6.998;2023-10-09T10:36:51;21.40;64.93
52656;SHT85;35474;51.032;6.998;2023-10-09T10:39:25;21.60;64.55
52656;SHT85;35474;51.032;6.998;2023-10-09T10:42:10;21.31;65.23
52656;SHT85;35474;51.032;6.998;2023-10-09T10:45:02;20.92;66.20
52656;SHT85;35474;51.032;6.998;2023-10-09T10:47:41;21.27;65.79
52656;SHT85;35474;51.032;6.998;2023-10-09T10:50:08;21.41;64.97
52656;SHT85;35474;51.032;6.998;2023-10-09T10:53:12;21.58;64.57
52656;SHT85;35474;51.032;6.998;2023-10-09T10:55:55;21.55;64.36
52656;SHT85;35474;51.032;6.998;2023-10-09T10:58:23;21.44;64.01
52656;SHT85;35474;51.032;6.998;2023-10-09T11:00:52;21.48;64.11
52656;SHT85;35474;51.032;6.998;2023-10-09T11:03:22;21.51;63.97
52656;SHT85;35474;51.032;6.998;2023-10-09T11:06:00;21.72;63.80
52656;SHT85;35474;51.032;6.998;2023-10-09T11:08:46;21.64;63.68
52656;SHT85;35474;51.032;6.998;2023-10-09T11:11:21;21.79;63.31
52656;SHT85;35474;51.032;6.998;2023-10-09T11:13:48;21.62;63.76
52656;SHT85;35474;51.032;6.998;2023-10-09T11:16:25;21.95;63.28
52656;SHT85;35474;51.032;6.998;2023-10-09T11:19:01;22.09;63.12
52656;SHT85;35474;51.032;6.998;2023-10-09T11:21:38;22.03;63.15
52656;SHT85;35474;51.032;6.998;2023-10-09T11:24:09;22.13;62.28
52656;SHT85;35474;51.032;6.998;2023-10-09T11:26:50;21.88;62.33
52656;SHT85;35474;51.032;6.998;2023-10-09T11:29:22;21.96;61.46
52656;SHT85;35474;51.032;6.998;2023-10-09T11:32:00;21.96;61.69
52656;SHT85;35474;51.032;6.998;2023-10-09T11:34:44;22.06;61.06
52656;SHT85;35474;51.032;6.998;2023-10-09T11:37:21;21.96;61.81
52656;SHT85;35474;51.032;6.998;2023-10-09T11:39:55;21.95;62.38
52656;SHT85;35474;51.032;6.998;2023-10-09T11:42:28;21.83;62.69
52656;SHT85;35474;51.032;6.998;2023-10-09T11:45:25;22.06;62.23
52656;SHT85;35474;51.032;6.998;2023-10-09T11:47:57;22.36;62.08
52656;SHT85;35474;51.032;6.998;2023-10-09T11:50:41;22.33;61.12
52656;SHT85;35474;51.032;6.998;2023-10-09T11:53:10;22.39;61.46
52656;SHT85;35474;51.032;6.998;2023-10-09T11:55:50;22.48;61.05
52656;SHT85;35474;51.032;6.998;2023-10-09T11:58:20;22.59;60.71
52656;SHT85;35474;51.032;6.998;2023-10-09T12:00:51;22.53;61.01
52656;SHT85;35474;51.032;6.998;2023-10-09T12:03:27;22.56;61.39
52656;SHT85;35474;51.032;6.998;2023-10-09T12:05:56;22.68;61.23
52656;SHT85;35474;51.032;6.998;2023-10-09T12:08:24;22.30;62.01
52656;SHT85;35474;51.032;6.998;2023-10-09T12:10:54;22.68;61.22
52656;SHT85;35474;51.032;6.998;2023-10-09T12:13:22;22.85;60.94
52656;SHT85;35474;51.032;6.998;2023-10-09T12:15:52;22.70;61.52
52656;SHT85;35474;51.032;6.998;2023-10-09T12:18:22;22.15;62.22
52656;SHT85;35474;51.032;6.998;2023-10-09T12:20:50;22.32;62.09
52656;SHT85;35474;51.032;6.998;2023-10-09T12:23:18;21.96;62.64
52656;SHT85;35474;51.032;6.998;2023-10-09T12:25:50;21.83;63.08
52656;SHT85;35474;51.032;6.998;2023-10-09T12:28:18;21.98;63.41
52656;SHT85;35474;51.032;6.998;2023-10-09T12:30:47;22.66;61.88
52656;SHT85;35474;51.032;6.998;2023-10-09T12:33:17;23.16;60.86
52656;SHT85;35474;51.032;6.998;2023-10-09T12:35:46;22.61;62.08
52656;SHT85;35474;51.032;6.998;2023-10-09T12:38:14;22.80;61.79
52656;SHT85;35474;51.032;6.998;2023-10-09T12:40:45;22.15;63.04
52656;SHT85;35474;51.032;6.998;2023-10-09T12:43:18;21.85;64.12
52656;SHT85;35474;51.032;6.998;2023-10-09T12:45:46;21.57;64.30
52656;SHT85;35474;51.032;6.998;2023-10-09T12:48:13;21.82;63.99
52656;SHT85;35474;51.032;6.998;2023-10-09T12:50:41;21.90;64.01
52656;SHT85;35474;51.032;6.998;2023-10-09T12:53:08;22.02;63.83
52656;SHT85;35474;51.032;6.998;2023-10-09T12:55:38;21.79;63.86
52656;SHT85;35474;51.032;6.998;2023-10-09T12:58:08;21.54;64.43
52656;SHT85;35474;51.032;6.998;2023-10-09T13:00:41;21.41;64.81
52656;SHT85;35474;51.032;6.998;2023-10-09T13:03:15;21.47;64.94
52656;SHT85;35474;51.032;6.998;2023-10-09T13:05:50;21.35;65.36
52656;SHT85;35474;51.032;6.998;2023-10-09T13:08:25;21.35;65.55
52656;SHT85;35474;51.032;6.998;2023-10-09T13:11:05;21.51;65.23
52656;SHT85;35474;51.032;6.998;2023-10-09T13:13:43;21.40;65.43
52656;SHT85;35474;51.032;6.998;2023-10-09T13:16:14;21.23;66.04
52656;SHT85;35474;51.032;6.998;2023-10-09T13:18:53;21.26;65.93
52656;SHT85;35474;51.032;6.998;2023-10-09T13:21:24;21.17;65.83
52656;SHT85;35474;51.032;6.998;2023-10-09T13:23:52;21.30;66.01
52656;SHT85;35474;51.032;6.998;2023-10-09T13:26:23;21.35;65.91
52656;SHT85;35474;51.032;6.998;2023-10-09T13:29:00;21.30;66.07
52656;SHT85;35474;51.032;6.998;2023-10-09T13:31:28;21.32;66.25
52656;SHT85;35474;51.032;6.998;2023-10-09T13:33:58;21.35;66.40
52656;SHT85;35474;51.032;6.998;2023-10-09T13:36:25;21.38;66.58
52656;SHT85;35474;51.032;6.998;2023-10-09T13:39:00;21.47;66.09
52656;SHT85;35474;51.032;6.998;2023-10-09T13:41:53;21.57;65.89
52656;SHT85;35474;51.032;6.998;2023-10-09T13:44:27;21.62;65.78
52656;SHT85;35474;51.032;6.998;2023-10-09T13:46:55;21.64;64.95
52656;SHT85;35474;51.032;6.998;2023-10-09T13:49:23;21.58;65.92
52656;SHT85;35474;51.032;6.998;2023-10-09T13:51:56;21.82;65.40
52656;SHT85;35474;51.032;6.998;2023-10-09T13:54:24;21.92;65.22
52656;SHT85;35474;51.032;6.998;2023-10-09T13:57:00;22.00;65.00
52656;SHT85;35474;51.032;6.998;2023-10-09T13:59:30;22.27;64.53
52656;SHT85;35474;51.032;6.998;2023-10-09T14:01:58;22.76;63.38
52656;SHT85;35474;51.032;6.998;2023-10-09T14:04:26;23.10;62.11
52656;SHT85;35474;51.032;6.998;2023-10-09T14:06:52;23.01;62.06
52656;SHT85;35474;51.032;6.998;2023-10-09T14:09:26;23.21;61.71
52656;SHT85;35474;51.032;6.998;2023-10-09T14:12:11;23.25;61.67
52656;SHT85;35474;51.032;6.998;2023-10-09T14:14:44;23.04;62.57
52656;SHT85;35474;51.032;6.998;2023-10-09T14:19:44;22.81;62.72
52656;SHT85;35474;51.032;6.998;2023-10-09T14:22:18;22.73;63.29
52656;SHT85;35474;51.032;6.998;2023-10-09T14:24:53;22.70;62.77
52656;SHT85;35474;51.032;6.998;2023-10-09T14:27:25;22.81;63.02
52656;SHT85;35474;51.032;6.998;2023-10-09T14:29:54;22.81;63.12
52656;SHT85;35474;51.032;6.998;2023-10-09T14:32:27;23.26;62.02
52656;SHT85;35474;51.032;6.998;2023-10-09T14:35:04;23.55;61.13
52656;SHT85;35474;51.032;6.998;2023-10-09T14:37:40;23.24;61.94
52656;SHT85;35474;51.032;6.998;2023-10-09T14:40:07;22.83;62.93
52656;SHT85;35474;51.032;6.998;2023-10-09T14:42:39;22.26;64.30
52656;SHT85;35474;51.032;6.998;2023-10-09T14:45:10;22.03;65.04
52656;SHT85;35474;51.032;6.998;2023-10-09T14:47:42;21.96;65.57
52656;SHT85;35474;51.032;6.998;2023-10-09T14:50:09;22.23;64.91
52656;SHT85;35474;51.032;6.998;2023-10-09T14:52:36;22.12;65.44
52656;SHT85;35474;51.032;6.998;2023-10-09T14:55:05;22.35;64.28
52656;SHT85;35474;51.032;6.998;2023-10-09T14:57:32;22.12;64.49
52656;SHT85;35474;51.032;6.998;2023-10-09T15:00:02;21.95;64.96
52656;SHT85;35474;51.032;6.998;2023-10-09T15:02:40;21.83;65.39
52656;SHT85;35474;51.032;6.998;2023-10-09T15:05:07;21.88;65.58
52656;SHT85;35474;51.032;6.998;2023-10-09T15:07:38;21.86;65.79
52656;SHT85;35474;51.032;6.998;2023-10-09T15:10:10;21.81;65.65
52656;SHT85;35474;51.032;6.998;2023-10-09T15:12:41;22.06;65.61
52656;SHT85;35474;51.032;6.998;2023-10-09T15:15:13;21.96;65.48
52656;SHT85;35474;51.032;6.998;2023-10-09T15:17:41;22.18;65.35
52656;SHT85;35474;51.032;6.998;2023-10-09T15:20:14;22.68;64.10
52656;SHT85;35474;51.032;6.998;2023-10-09T15:22:41;22.51;64.37
52656;SHT85;35474;51.032;6.998;2023-10-09T15:25:09;22.66;64.22
52656;SHT85;35474;51.032;6.998;2023-10-09T15:27:42;22.30;65.22
52656;SHT85;35474;51.032;6.998;2023-10-09T15:30:10;22.61;64.73
52656;SHT85;35474;51.032;6.998;2023-10-09T15:32:41;22.44;64.36
52656;SHT85;35474;51.032;6.998;2023-10-09T15:35:08;22.08;65.23
52656;SHT85;35474;51.032;6.998;2023-10-09T15:37:42;22.09;65.09
52656;SHT85;35474;51.032;6.998;2023-10-09T15:40:09;22.37;64.51
52656;SHT85;35474;51.032;6.998;2023-10-09T15:42:45;22.44;64.35
52656;SHT85;35474;51.032;6.998;2023-10-09T15:45:22;22.26;64.65
52656;SHT85;35474;51.032;6.998;2023-10-09T15:47:50;22.06;64.90
52656;SHT85;35474;51.032;6.998;2023-10-09T15:50:18;21.98;65.00
52656;SHT85;35474;51.032;6.998;2023-10-09T15:52:46;21.95;65.58
52656;SHT85;35474;51.032;6.998;2023-10-09T15:55:15;21.98;65.60
52656;SHT85;35474;51.032;6.998;2023-10-09T15:57:47;21.93;66.02
52656;SHT85;35474;51.032;6.998;2023-10-09T16:00:18;21.88;66.03
52656;SHT85;35474;51.032;6.998;2023-10-09T16:02:49;21.74;66.47
52656;SHT85;35474;51.032;6.998;2023-10-09T16:05:19;21.52;67.23
52656;SHT85;35474;51.032;6.998;2023-10-09T16:07:52;21.38;67.71
52656;SHT85;35474;51.032;6.998;2023-10-09T16:10:19;21.28;68.21
52656;SHT85;35474;51.032;6.998;2023-10-09T16:12:47;21.10;68.69
52656;SHT85;35474;51.032;6.998;2023-10-09T16:15:14;20.93;69.18
52656;SHT85;35474;51.032;6.998;2023-10-09T16:17:41;20.87;69.44
52656;SHT85;35474;51.032;6.998;2023-10-09T16:20:10;20.66;70.04
52656;SHT85;35474;51.032;6.998;2023-10-09T16:22:52;20.66;70.14
52656;SHT85;35474;51.032;6.998;2023-10-09T16:25:19;20.56;70.34
52656;SHT85;35474;51.032;6.998;2023-10-09T16:27:50;20.46;70.61
52656;SHT85;35474;51.032;6.998;2023-10-09T16:30:17;20.46;70.82
52656;SHT85;35474;51.032;6.998;2023-10-09T16:32:47;20.38;71.05
52656;SHT85;35474;51.032;6.998;2023-10-09T16:35:14;20.39;70.94
52656;SHT85;35474;51.032;6.998;2023-10-09T16:37:41;20.34;71.08